createdAt,value
2023-04-29T00:02:21.759Z,100801.54
2023-04-29T00:04:48.976Z,100799.99
2023-04-29T00:07:16.274Z,100813.66
2023-04-29T00:09:43.343Z,100806.81
2023-04-29T00:12:11.022Z,100809.04
2023-04-29T00:14:38.091Z,100800.85
2023-04-29T00:17:05.694Z,100794.86
2023-04-29T00:19:33.795Z,100795.93
2023-04-29T00:22:01.407Z,100800.86
2023-04-29T00:24:28.466Z,100805.10
2023-04-29T00:26:55.534Z,100792.34
2023-04-29T00:29:23.751Z,100801.69
2023-04-29T00:31:50.994Z,100797.00
2023-04-29T00:34:18.107Z,100790.36
2023-04-29T00:36:45.128Z,100786.83
2023-04-29T00:39:15.283Z,100788.63
2023-04-29T00:41:42.784Z,100806.17
2023-04-29T00:44:10.408Z,100784.81
2023-04-29T00:46:37.544Z,100790.30
2023-04-29T00:49:04.950Z,100783.89
2023-04-29T00:51:33.370Z,100782.19
2023-04-29T00:54:00.337Z,100788.96
2023-04-29T00:56:27.682Z,100781.69
2023-04-29T00:58:54.964Z,100784.77
2023-04-29T01:01:22.215Z,100785.86
2023-04-29T01:03:49.378Z,100783.64
2023-04-29T01:06:35.221Z,100779.09
2023-04-29T01:09:21.977Z,100792.20
2023-04-29T01:12:16.572Z,100787.20
2023-04-29T01:14:43.929Z,100789.16
2023-04-29T01:17:11.882Z,100785.41
2023-04-29T01:19:48.699Z,100787.66
2023-04-29T01:22:17.822Z,100790.41
2023-04-29T01:24:45.065Z,100796.48
2023-04-29T01:27:19.284Z,100792.45
2023-04-29T01:29:49.458Z,100782.96
2023-04-29T01:32:19.191Z,100790.27
2023-04-29T01:35:08.567Z,100788.14
2023-04-29T01:37:42.770Z,100786.31
2023-04-29T01:40:22.949Z,100788.40
2023-04-29T01:43:12.063Z,100783.36
2023-04-29T01:45:42.330Z,100781.49
2023-04-29T01:48:09.370Z,100789.27
2023-04-29T01:50:36.687Z,100783.66
2023-04-29T01:53:13.984Z,100788.90
2023-04-29T01:55:41.296Z,100791.16
2023-04-29T01:58:28.271Z,100792.16
2023-04-29T02:01:04.280Z,100794.75
2023-04-29T02:03:32.396Z,100800.44
2023-04-29T02:06:01.471Z,100799.42
2023-04-29T02:08:28.973Z,100796.53
2023-04-29T02:10:56.492Z,100787.72
2023-04-29T02:13:37.891Z,100798.40
2023-04-29T02:16:11.986Z,100786.05
2023-04-29T02:18:43.034Z,100791.72
2023-04-29T02:21:10.174Z,100793.86
2023-04-29T02:23:37.731Z,100801.80
2023-04-29T02:26:07.624Z,100803.73
2023-04-29T02:28:35.206Z,100801.86
2023-04-29T02:31:02.435Z,100799.13
2023-04-29T02:33:30.714Z,100799.05
2023-04-29T02:35:57.705Z,100798.29
2023-04-29T02:38:24.712Z,100807.95
2023-04-29T02:40:52.303Z,100800.88
2023-04-29T02:43:19.276Z,100809.27
2023-04-29T02:45:46.508Z,100812.95
2023-04-29T02:48:13.573Z,100823.89
2023-04-29T02:50:41.131Z,100807.48
2023-04-29T02:53:08.109Z,100828.73
2023-04-29T02:55:35.098Z,100816.18
2023-04-29T02:58:06.876Z,100821.41
2023-04-29T03:00:33.856Z,100818.45
2023-04-29T03:03:02.063Z,100834.06
2023-04-29T03:05:29.504Z,100826.18
2023-04-29T03:07:56.590Z,100824.36
2023-04-29T03:10:23.670Z,100830.40
2023-04-29T03:12:50.699Z,100825.80
2023-04-29T03:15:17.732Z,100828.27
2023-04-29T03:17:46.665Z,100823.02
2023-04-29T03:20:14.116Z,100824.27
2023-04-29T03:22:41.127Z,100828.15
2023-04-29T03:25:10.884Z,100817.40
2023-04-29T03:27:39.781Z,100823.92
2023-04-29T03:30:08.031Z,100828.52
2023-04-29T03:32:36.174Z,100830.75
2023-04-29T03:35:03.945Z,100824.63
2023-04-29T03:37:36.300Z,100826.83
2023-04-29T03:40:14.486Z,100831.73
2023-04-29T03:42:42.235Z,100825.27
2023-04-29T03:45:10.154Z,100824.55
2023-04-29T03:47:37.277Z,100838.50
2023-04-29T03:50:04.904Z,100829.95
2023-04-29T03:52:31.936Z,100843.19
2023-04-29T03:55:01.564Z,100833.14
2023-04-29T03:57:28.623Z,100845.77
2023-04-29T03:59:55.956Z,100830.19
2023-04-29T04:02:24.141Z,100834.31
2023-04-29T04:04:51.470Z,100833.17
2023-04-29T04:07:18.613Z,100833.25
2023-04-29T04:10:04.264Z,100832.44
2023-04-29T04:12:31.773Z,100831.41
2023-04-29T04:14:59.308Z,100829.13
2023-04-29T04:17:27.242Z,100829.58
2023-04-29T04:19:54.610Z,100842.11
2023-04-29T04:22:21.866Z,100847.58
2023-04-29T04:25:02.885Z,100845.58
2023-04-29T04:27:30.317Z,100839.86
2023-04-29T04:29:59.277Z,100843.06
2023-04-29T04:32:31.791Z,100851.27
2023-04-29T04:34:58.902Z,100838.77
2023-04-29T04:37:26.576Z,100835.18
2023-04-29T04:39:55.405Z,100850.02
2023-04-29T04:42:23.389Z,100843.96
2023-04-29T04:44:51.747Z,100850.31
2023-04-29T04:47:41.807Z,100846.95
2023-04-29T04:50:31.712Z,100849.65
2023-04-29T04:52:59.817Z,100842.66
2023-04-29T04:55:41.885Z,100842.25
2023-04-29T04:58:09.115Z,100839.71
2023-04-29T05:00:36.914Z,100844.95
2023-04-29T05:03:04.467Z,100835.52
2023-04-29T05:05:33.678Z,100862.28
2023-04-29T05:08:01.294Z,100845.58
2023-04-29T05:10:36.864Z,100841.13
2023-04-29T05:13:04.934Z,100842.05
2023-04-29T05:15:32.579Z,100840.56
2023-04-29T05:18:00.605Z,100844.00
2023-04-29T05:20:28.075Z,100836.33
2023-04-29T05:22:55.506Z,100843.62
2023-04-29T05:25:22.836Z,100848.61
2023-04-29T05:27:50.027Z,100833.57
2023-04-29T05:30:19.205Z,100839.45
2023-04-29T05:32:46.716Z,100839.08
2023-04-29T05:35:15.765Z,100831.32
2023-04-29T05:37:44.446Z,100834.69
2023-04-29T05:40:38.323Z,100842.00
2023-04-29T05:43:24.566Z,100830.73
2023-04-29T05:45:52.485Z,100839.45
2023-04-29T05:48:19.498Z,100834.45
2023-04-29T05:50:48.367Z,100832.41
2023-04-29T05:53:15.611Z,100825.45
2023-04-29T05:55:45.238Z,100820.02
2023-04-29T05:58:13.247Z,100829.32
2023-04-29T06:00:40.787Z,100835.34
2023-04-29T06:03:12.793Z,100826.52
2023-04-29T06:05:40.699Z,100831.81
2023-04-29T06:08:27.123Z,100834.31
2023-04-29T06:10:58.698Z,100828.05
2023-04-29T06:13:26.669Z,100830.96
2023-04-29T06:15:53.666Z,100848.77
2023-04-29T06:18:21.063Z,100836.45
2023-04-29T06:20:48.087Z,100830.63
2023-04-29T06:23:15.164Z,100837.71
2023-04-29T06:25:42.507Z,100831.60
2023-04-29T06:28:10.688Z,100832.09
2023-04-29T06:30:37.851Z,100842.68
2023-04-29T06:33:05.157Z,100847.59
2023-04-29T06:35:32.365Z,100846.29
2023-04-29T06:38:24.719Z,100830.75
2023-04-29T06:41:01.909Z,100840.02
2023-04-29T06:43:52.196Z,100829.80
2023-04-29T06:46:46.751Z,100852.52
2023-04-29T06:49:27.569Z,100863.27
2023-04-29T06:51:54.682Z,100830.77
2023-04-29T06:54:21.944Z,100818.09
2023-04-29T06:56:50.644Z,100851.04
2023-04-29T06:59:18.143Z,100828.11
2023-04-29T07:01:46.551Z,100829.27
2023-04-29T07:04:14.801Z,100834.02
2023-04-29T07:06:42.261Z,100827.43
2023-04-29T07:09:09.318Z,100827.71
2023-04-29T07:11:37.193Z,100839.58
2023-04-29T07:14:04.184Z,100833.52
2023-04-29T07:16:31.374Z,100825.91
2023-04-29T07:18:58.396Z,100828.39
2023-04-29T07:21:25.465Z,100809.70
2023-04-29T07:23:56.316Z,100823.45
2023-04-29T07:26:24.349Z,100818.65
2023-04-29T07:28:51.486Z,100835.44
2023-04-29T07:31:18.499Z,100828.55
2023-04-29T07:33:46.700Z,100820.50
2023-04-29T07:36:13.749Z,100819.72
2023-04-29T07:38:40.923Z,100826.92
2023-04-29T07:41:07.960Z,100827.77
2023-04-29T07:43:35.021Z,100820.15
2023-04-29T07:46:02.089Z,100810.59
2023-04-29T07:48:29.174Z,100827.69
2023-04-29T07:50:56.229Z,100815.56
2023-04-29T07:53:23.214Z,100823.86
2023-04-29T07:55:50.986Z,100824.43
2023-04-29T07:58:19.371Z,100813.42
2023-04-29T08:00:47.480Z,100817.12
2023-04-29T08:03:14.671Z,100813.58
2023-04-29T08:05:43.543Z,100823.25
2023-04-29T08:08:14.510Z,100815.91
2023-04-29T08:10:43.363Z,100811.26
2023-04-29T08:13:11.563Z,100802.84
2023-04-29T08:15:40.827Z,100791.80
2023-04-29T08:18:07.864Z,100799.66
2023-04-29T08:20:34.871Z,100817.68
2023-04-29T08:23:01.950Z,100802.82
2023-04-29T08:25:29.373Z,100821.15
2023-04-29T08:27:56.398Z,100824.52
2023-04-29T08:30:23.577Z,100804.56
2023-04-29T08:32:51.058Z,100801.52
2023-04-29T08:35:18.259Z,100792.23
2023-04-29T08:37:45.344Z,100801.73
2023-04-29T08:40:13.283Z,100799.89
2023-04-29T08:42:41.047Z,100798.23
2023-04-29T08:45:08.453Z,100778.99
2023-04-29T08:47:35.603Z,100802.86
2023-04-29T08:50:07.113Z,100794.94
2023-04-29T08:52:34.344Z,100782.50
2023-04-29T08:55:05.790Z,100784.98
2023-04-29T08:57:39.813Z,100788.29
2023-04-29T09:00:13.435Z,100785.77
2023-04-29T09:02:50.406Z,100771.99
2023-04-29T09:05:17.555Z,100762.56
2023-04-29T09:07:44.675Z,100769.42
2023-04-29T09:10:12.030Z,100752.52
2023-04-29T09:12:39.064Z,100761.61
2023-04-29T09:15:07.060Z,100757.01
2023-04-29T09:17:44.571Z,100756.63
2023-04-29T09:20:23.820Z,100746.65
2023-04-29T09:23:01.755Z,100765.14
2023-04-29T09:25:28.902Z,100763.90
2023-04-29T09:27:55.936Z,100752.79
2023-04-29T09:30:23.425Z,100728.48
2023-04-29T09:33:06.930Z,100735.59
2023-04-29T09:35:34.173Z,100740.30
2023-04-29T09:38:14.874Z,100729.86
2023-04-29T09:40:57.715Z,100703.93
2023-04-29T09:43:26.522Z,100716.58
2023-04-29T09:45:54.862Z,100723.27
2023-04-29T09:48:21.931Z,100728.52
2023-04-29T09:51:01.692Z,100727.49
2023-04-29T09:53:30.096Z,100711.78
2023-04-29T09:56:02.039Z,100718.31
2023-04-29T09:58:31.114Z,100725.07
2023-04-29T10:01:04.130Z,100717.54
2023-04-29T10:03:38.614Z,100717.13
2023-04-29T10:06:06.988Z,100695.51
2023-04-29T10:08:34.505Z,100708.03
2023-04-29T10:11:06.125Z,100705.91
2023-04-29T10:13:35.171Z,100705.36
2023-04-29T10:16:29.562Z,100696.31
2023-04-29T10:18:57.464Z,100712.17
2023-04-29T10:21:33.322Z,100706.57
2023-04-29T10:24:02.127Z,100732.43
2023-04-29T10:26:29.767Z,100729.97
2023-04-29T10:28:57.157Z,100739.37
2023-04-29T10:31:26.463Z,100750.41
2023-04-29T10:33:57.591Z,100747.38
2023-04-29T10:36:26.408Z,100723.42
2023-04-29T10:38:55.288Z,100749.77
2023-04-29T10:41:25.819Z,100755.29
2023-04-29T10:43:53.124Z,100740.90
2023-04-29T10:46:24.090Z,100743.77
2023-04-29T10:48:55.913Z,100746.05
2023-04-29T10:51:42.436Z,100748.02
2023-04-29T10:54:14.326Z,100745.64
2023-04-29T10:56:43.261Z,100750.61
2023-04-29T10:59:14.100Z,100744.81
2023-04-29T11:01:51.352Z,100743.65
2023-04-29T11:04:19.898Z,100747.27
2023-04-29T11:06:56.721Z,100761.35
2023-04-29T11:09:31.240Z,100757.09
2023-04-29T11:12:00.634Z,100749.69
2023-04-29T11:14:29.677Z,100749.14
2023-04-29T11:16:59.075Z,100752.11
2023-04-29T11:19:36.914Z,100760.30
2023-04-29T11:22:08.729Z,100752.39
2023-04-29T11:24:37.071Z,100741.71
2023-04-29T11:27:07.305Z,100734.13
2023-04-29T11:29:34.316Z,100743.36
2023-04-29T11:32:04.845Z,100743.43
2023-04-29T11:34:32.505Z,100745.27
2023-04-29T11:37:00.387Z,100736.27
2023-04-29T11:39:28.295Z,100734.59
2023-04-29T11:42:07.907Z,100732.26
2023-04-29T11:44:36.149Z,100724.40
2023-04-29T11:47:12.708Z,100723.54
2023-04-29T11:49:39.737Z,100722.61
2023-04-29T11:52:07.901Z,100731.41
2023-04-29T11:54:34.942Z,100725.27
2023-04-29T11:57:04.952Z,100717.63
2023-04-29T11:59:33.208Z,100705.48
2023-04-29T12:02:01.113Z,100702.01
2023-04-29T12:04:28.989Z,100713.04
2023-04-29T12:06:57.668Z,100711.86
2023-04-29T12:09:24.831Z,100707.83
2023-04-29T12:11:52.723Z,100712.31
2023-04-29T12:14:20.766Z,100700.80
2023-04-29T12:16:48.205Z,100700.15
2023-04-29T12:19:15.268Z,100706.27
2023-04-29T12:21:49.709Z,100695.21
2023-04-29T12:24:17.096Z,100702.14
2023-04-29T12:26:45.604Z,100692.44
2023-04-29T12:29:13.474Z,100696.80
2023-04-29T12:31:43.267Z,100690.52
2023-04-29T12:34:10.580Z,100695.14
2023-04-29T12:36:38.076Z,100679.16
2023-04-29T12:39:08.530Z,100676.56
2023-04-29T12:41:42.898Z,100682.09
2023-04-29T12:44:13.203Z,100670.80
2023-04-29T12:46:41.549Z,100672.41
2023-04-29T12:49:09.010Z,100672.48
2023-04-29T12:51:36.888Z,100669.72
2023-04-29T12:54:04.667Z,100664.04
2023-04-29T12:56:32.071Z,100663.08
2023-04-29T12:59:09.952Z,100673.10
2023-04-29T13:01:38.676Z,100673.60
2023-04-29T13:04:09.234Z,100669.77
2023-04-29T13:06:40.100Z,100678.85
2023-04-29T13:09:17.001Z,100653.23
2023-04-29T13:11:45.584Z,100665.68
2023-04-29T13:14:12.597Z,100666.71
2023-04-29T13:16:39.771Z,100658.80
2023-04-29T13:19:24.729Z,100657.36
2023-04-29T13:21:54.407Z,100653.72
2023-04-29T13:24:21.572Z,100662.95
2023-04-29T13:26:52.382Z,100658.11
2023-04-29T13:29:19.960Z,100655.32
2023-04-29T13:31:47.015Z,100651.04
2023-04-29T13:34:15.883Z,100651.08
2023-04-29T13:36:43.050Z,100664.84
2023-04-29T13:39:10.637Z,100652.14
2023-04-29T13:41:41.261Z,100649.88
2023-04-29T13:44:23.887Z,100645.25
2023-04-29T13:46:57.631Z,100640.84
2023-04-29T13:49:55.740Z,100640.94
2023-04-29T13:53:01.561Z,100630.31
2023-04-29T13:55:49.458Z,100632.13
2023-04-29T14:00:38.085Z,100633.56
2023-04-29T14:03:04.278Z,100626.86
2023-04-29T14:05:33.542Z,100627.89
2023-04-29T14:08:00.895Z,100623.23
2023-04-29T14:10:28.002Z,100618.55
2023-04-29T14:12:56.253Z,100617.25
2023-04-29T14:15:23.334Z,100613.23
2023-04-29T14:17:50.561Z,100620.11
2023-04-29T14:20:17.798Z,100606.99
2023-04-29T14:22:46.003Z,100616.60
2023-04-29T14:25:14.077Z,100607.68
2023-04-29T14:27:42.030Z,100603.77
2023-04-29T14:30:09.632Z,100605.48
2023-04-29T14:32:36.893Z,100598.94
2023-04-29T14:35:04.134Z,100603.17
2023-04-29T14:37:31.927Z,100604.96
2023-04-29T14:39:59.161Z,100603.17
2023-04-29T14:42:26.283Z,100599.85
2023-04-29T14:44:54.561Z,100608.89
2023-04-29T14:47:22.172Z,100610.50
2023-04-29T14:49:49.238Z,100607.35
2023-04-29T14:52:16.344Z,100608.58
2023-04-29T14:54:43.348Z,100600.61
2023-04-29T14:57:11.032Z,100608.13
2023-04-29T14:59:38.191Z,100609.98
2023-04-29T15:02:07.831Z,100603.34
2023-04-29T15:04:35.950Z,100608.09
2023-04-29T15:07:03.768Z,100604.16
2023-04-29T15:09:31.178Z,100595.67
2023-04-29T15:11:58.503Z,100601.09
2023-04-29T15:14:26.430Z,100600.89
2023-04-29T15:16:53.690Z,100599.47
2023-04-29T15:19:21.258Z,100592.27
2023-04-29T15:21:48.309Z,100599.54
2023-04-29T15:24:15.411Z,100594.88
2023-04-29T15:26:42.613Z,100597.66
2023-04-29T15:29:09.670Z,100592.80
2023-04-29T15:31:37.065Z,100595.35
2023-04-29T15:34:04.148Z,100604.53
2023-04-29T15:36:32.797Z,100607.14
2023-04-29T15:39:00.418Z,100605.33
2023-04-29T15:41:27.503Z,100599.34
2023-04-29T15:43:55.411Z,100595.86
2023-04-29T15:46:22.735Z,100604.39
2023-04-29T15:48:49.814Z,100603.79
2023-04-29T15:51:16.885Z,100602.10
2023-04-29T15:53:44.802Z,100602.89
2023-04-29T15:56:12.246Z,100604.38
2023-04-29T15:58:39.334Z,100604.86
2023-04-29T16:01:06.829Z,100607.72
2023-04-29T16:03:34.689Z,100602.70
2023-04-29T16:06:01.909Z,100604.97
2023-04-29T16:08:29.691Z,100599.64
2023-04-29T16:10:56.892Z,100605.95
2023-04-29T16:13:24.021Z,100606.66
2023-04-29T16:15:51.117Z,100609.29
2023-04-29T16:18:18.367Z,100615.10
2023-04-29T16:20:45.761Z,100610.44
2023-04-29T16:23:13.271Z,100614.14
2023-04-29T16:25:41.671Z,100612.11
2023-04-29T16:28:09.725Z,100615.94
2023-04-29T16:30:37.053Z,100619.28
2023-04-29T16:33:04.793Z,100625.78
2023-04-29T16:35:32.786Z,100631.58
2023-04-29T16:37:59.889Z,100630.35
2023-04-29T16:40:27.936Z,100631.33
2023-04-29T16:42:57.023Z,100629.81
2023-04-29T16:45:25.320Z,100629.23
2023-04-29T16:47:52.771Z,100633.33
2023-04-29T16:50:19.867Z,100628.05
2023-04-29T16:52:47.057Z,100627.38
2023-04-29T16:55:14.314Z,100623.70
2023-04-29T16:57:45.409Z,100621.09
2023-04-29T17:00:13.294Z,100622.20
2023-04-29T17:02:43.252Z,100623.36
2023-04-29T17:05:11.255Z,100628.52
2023-04-29T17:07:38.651Z,100628.96
2023-04-29T17:10:06.705Z,100630.77
2023-04-29T17:12:34.028Z,100631.13
2023-04-29T17:15:01.275Z,100637.14
2023-04-29T17:17:28.471Z,100642.71
2023-04-29T17:19:56.637Z,100644.11
2023-04-29T17:22:24.147Z,100644.48
2023-04-29T17:24:51.484Z,100646.16
2023-04-29T17:27:18.623Z,100651.31
2023-04-29T17:29:46.412Z,100648.77
2023-04-29T17:32:17.314Z,100649.46
2023-04-29T17:34:44.305Z,100650.22
2023-04-29T17:37:13.147Z,100650.77
2023-04-29T17:39:40.815Z,100656.92
2023-04-29T17:42:08.020Z,100661.74
2023-04-29T17:44:37.616Z,100662.20
2023-04-29T17:47:04.664Z,100659.54
2023-04-29T17:49:32.710Z,100662.97
2023-04-29T17:52:04.069Z,100660.65
2023-04-29T17:54:31.853Z,100657.40
2023-04-29T17:56:59.253Z,100659.96
2023-04-29T17:59:26.446Z,100659.11
2023-04-29T18:01:53.767Z,100663.52
2023-04-29T18:04:21.125Z,100663.98
2023-04-29T18:06:48.286Z,100661.20
2023-04-29T18:09:15.737Z,100659.88
2023-04-29T18:11:42.847Z,100661.17
2023-04-29T18:14:10.203Z,100662.17
2023-04-29T18:16:37.798Z,100660.08
2023-04-29T18:19:05.224Z,100661.75
2023-04-29T18:21:33.017Z,100662.73
2023-04-29T18:24:00.183Z,100667.60
2023-04-29T18:26:27.470Z,100668.35
2023-04-29T18:28:55.386Z,100667.92
2023-04-29T18:31:25.176Z,100671.05
2023-04-29T18:33:52.533Z,100670.10
2023-04-29T18:36:21.496Z,100665.53
2023-04-29T18:38:48.708Z,100660.17
2023-04-29T18:41:15.940Z,100664.78
2023-04-29T18:43:43.066Z,100671.85
2023-04-29T18:46:10.253Z,100671.23
2023-04-29T18:48:39.075Z,100667.20
2023-04-29T18:51:07.307Z,100668.70
2023-04-29T18:53:34.685Z,100667.96
2023-04-29T18:56:02.024Z,100665.04
2023-04-29T18:58:29.368Z,100668.08
2023-04-29T19:00:59.934Z,100666.68
2023-04-29T19:03:27.433Z,100665.53
2023-04-29T19:05:54.561Z,100665.52
2023-04-29T19:08:21.707Z,100662.33
2023-04-29T19:10:48.767Z,100668.08
2023-04-29T19:13:16.384Z,100667.57
2023-04-29T19:15:43.874Z,100668.98
2023-04-29T19:18:11.290Z,100664.92
2023-04-29T19:20:38.398Z,100667.36
2023-04-29T19:23:05.840Z,100669.48
2023-04-29T19:25:32.938Z,100670.55
2023-04-29T19:28:00.363Z,100665.23
2023-04-29T19:30:27.509Z,100669.32
2023-04-29T19:32:54.791Z,100662.92
2023-04-29T19:35:22.110Z,100664.36
2023-04-29T19:37:49.634Z,100659.91
2023-04-29T19:40:17.170Z,100655.86
2023-04-29T19:42:44.940Z,100654.81
2023-04-29T19:45:12.972Z,100653.98
2023-04-29T19:47:40.209Z,100649.16
2023-04-29T19:50:08.026Z,100649.01
2023-04-29T19:52:35.211Z,100646.16
2023-04-29T19:55:02.433Z,100642.83
2023-04-29T19:57:30.772Z,100639.95
2023-04-29T19:59:58.015Z,100639.27
2023-04-29T20:02:25.297Z,100636.53
2023-04-29T20:04:52.786Z,100636.55
2023-04-29T20:07:20.084Z,100641.27
2023-04-29T20:09:47.949Z,100638.42
2023-04-29T20:12:14.953Z,100638.82
2023-04-29T20:14:42.056Z,100639.52
2023-04-29T20:17:09.251Z,100636.59
2023-04-29T20:19:36.701Z,100641.09
2023-04-29T20:22:03.981Z,100636.90
2023-04-29T20:24:31.088Z,100627.67
2023-04-29T20:26:58.561Z,100626.50
2023-04-29T20:29:25.792Z,100627.81
2023-04-29T20:32:27.866Z,100631.23
2023-04-29T20:34:57.735Z,100627.11
2023-04-29T20:37:25.066Z,100624.60
2023-04-29T20:39:52.292Z,100616.60
2023-04-29T20:42:19.840Z,100620.83
2023-04-29T20:44:47.291Z,100615.54
2023-04-29T20:47:15.591Z,100612.70
2023-04-29T20:49:43.433Z,100613.38
2023-04-29T20:52:10.848Z,100616.60
2023-04-29T20:54:37.936Z,100614.39
2023-04-29T20:57:05.904Z,100617.70
2023-04-29T20:59:33.636Z,100614.01
2023-04-29T21:02:01.008Z,100611.39
2023-04-29T21:04:28.363Z,100611.20
2023-04-29T21:06:55.565Z,100608.02
2023-04-29T21:09:23.914Z,100610.90
2023-04-29T21:11:52.273Z,100610.14
2023-04-29T21:14:19.271Z,100606.91
2023-04-29T21:16:46.356Z,100602.65
2023-04-29T21:19:13.608Z,100603.59
2023-04-29T21:21:40.645Z,100601.80
2023-04-29T21:24:07.705Z,100603.02
2023-04-29T21:26:34.695Z,100599.58
2023-04-29T21:29:03.393Z,100590.04
2023-04-29T21:31:31.000Z,100591.68
2023-04-29T21:33:58.059Z,100595.02
2023-04-29T21:36:25.071Z,100598.20
2023-04-29T21:38:52.950Z,100593.36
2023-04-29T21:41:27.589Z,100589.95
2023-04-29T21:43:58.318Z,100588.38
2023-04-29T21:46:27.833Z,100589.58
2023-04-29T21:48:56.448Z,100585.02
2023-04-29T21:51:23.437Z,100578.11
2023-04-29T21:53:51.037Z,100577.12
2023-04-29T21:56:18.185Z,100582.43
2023-04-29T21:58:45.551Z,100580.30
2023-04-29T22:01:40.504Z,100577.86
2023-04-29T22:04:07.643Z,100579.10
2023-04-29T22:06:34.910Z,100572.34
2023-04-29T22:09:02.439Z,100570.30
2023-04-29T22:11:29.504Z,100568.30
2023-04-29T22:13:56.562Z,100565.61
2023-04-29T22:16:24.319Z,100562.30
2023-04-29T22:18:52.111Z,100561.35
2023-04-29T22:21:19.170Z,100557.14
2023-04-29T22:23:46.681Z,100554.85
2023-04-29T22:26:13.703Z,100553.86
2023-04-29T22:28:40.806Z,100546.43
2023-04-29T22:31:08.003Z,100549.38
2023-04-29T22:33:35.545Z,100552.37
2023-04-29T22:36:03.076Z,100547.52
2023-04-29T22:38:30.072Z,100545.15
2023-04-29T22:40:57.062Z,100538.89
2023-04-29T22:43:24.209Z,100539.73
2023-04-29T22:45:52.744Z,100538.49
2023-04-29T22:48:20.071Z,100529.67
2023-04-29T22:50:54.012Z,100530.64
2023-04-29T22:53:21.350Z,100532.17
2023-04-29T22:55:56.141Z,100526.80
2023-04-29T22:58:25.584Z,100527.57
2023-04-29T23:00:56.925Z,100522.19
2023-04-29T23:03:24.233Z,100522.65
2023-04-29T23:05:51.431Z,100515.64
2023-04-29T23:08:18.477Z,100515.30
2023-04-29T23:10:49.778Z,100512.98
2023-04-29T23:13:17.222Z,100511.45
2023-04-29T23:15:44.928Z,100505.21
2023-04-29T23:18:12.053Z,100503.11
2023-04-29T23:20:39.055Z,100507.95
2023-04-29T23:23:06.178Z,100504.27
2023-04-29T23:25:33.226Z,100503.81
2023-04-29T23:28:00.901Z,100503.63
2023-04-29T23:30:28.175Z,100501.77
2023-04-29T23:32:55.441Z,100502.34
2023-04-29T23:35:22.652Z,100502.75
2023-04-29T23:37:49.683Z,100495.23
2023-04-29T23:40:17.005Z,100497.99
2023-04-29T23:42:44.076Z,100497.11
2023-04-29T23:45:11.183Z,100489.29
2023-04-29T23:47:38.321Z,100492.12
2023-04-29T23:50:05.993Z,100497.82
2023-04-29T23:52:33.111Z,100490.36
2023-04-29T23:55:00.241Z,100494.77
2023-04-29T23:57:27.242Z,100490.36
2023-04-29T23:59:54.419Z,100490.15
